createdAt,value
2018-07-12T00:00:12.993Z,99.99
2018-07-12T00:01:12.971Z,99.99
2018-07-12T00:02:12.931Z,99.99
2018-07-12T00:03:12.903Z,99.99
2018-07-12T00:04:12.878Z,99.99
2018-07-12T00:05:12.841Z,99.99
2018-07-12T00:06:12.803Z,99.99
2018-07-12T00:07:12.800Z,99.99
2018-07-12T00:08:12.736Z,99.99
2018-07-12T00:09:12.704Z,99.99
2018-07-12T00:10:12.676Z,99.99
2018-07-12T00:11:12.652Z,99.99
2018-07-12T00:12:12.605Z,99.99
2018-07-12T00:13:12.596Z,99.99
2018-07-12T00:14:12.541Z,99.99
2018-07-12T00:15:12.510Z,99.99
2018-07-12T00:16:12.475Z,99.99
2018-07-12T00:17:12.460Z,99.99
2018-07-12T00:18:12.422Z,99.99
2018-07-12T00:19:12.380Z,99.99
2018-07-12T00:20:12.361Z,99.99
2018-07-12T00:21:12.314Z,99.99
2018-07-12T00:22:13.191Z,99.99
2018-07-12T00:23:12.285Z,99.99
2018-07-12T00:24:12.222Z,99.99
2018-07-12T00:25:12.187Z,99.99
2018-07-12T00:26:12.206Z,99.99
2018-07-12T00:27:12.118Z,99.99
2018-07-12T00:28:12.087Z,99.99
2018-07-12T00:29:12.053Z,99.99
2018-07-12T00:30:12.029Z,99.99
2018-07-12T00:31:11.999Z,99.99
2018-07-12T00:32:11.961Z,99.99
2018-07-12T00:33:11.923Z,99.99
2018-07-12T00:34:11.898Z,99.99
2018-07-12T00:35:11.862Z,99.99
2018-07-12T00:36:11.840Z,99.99
2018-07-12T00:37:11.803Z,99.99
2018-07-12T00:38:11.771Z,99.99
2018-07-12T00:39:11.753Z,99.99
2018-07-12T00:40:11.710Z,99.99
2018-07-12T00:41:11.669Z,99.99
2018-07-12T00:42:11.639Z,99.99
2018-07-12T00:43:11.643Z,99.99
2018-07-12T00:44:11.572Z,99.99
2018-07-12T00:45:11.541Z,99.99
2018-07-12T00:46:11.512Z,99.99
2018-07-12T00:47:11.472Z,99.99
2018-07-12T00:48:11.463Z,99.99
2018-07-12T00:49:11.416Z,99.99
2018-07-12T00:50:11.383Z,99.99
2018-07-12T00:51:11.371Z,99.99
2018-07-12T00:52:11.312Z,99.99
2018-07-12T00:53:11.281Z,99.99
2018-07-12T00:54:11.244Z,99.99
2018-07-12T00:55:11.215Z,99.99
2018-07-12T00:56:11.185Z,99.99
2018-07-12T00:57:11.155Z,99.99
2018-07-12T00:58:11.124Z,99.99
2018-07-12T00:59:12.766Z,99.99
2018-07-12T01:00:11.055Z,99.99
2018-07-12T01:01:11.019Z,99.99
2018-07-12T01:02:11.016Z,99.99
2018-07-12T01:03:11.018Z,99.99
2018-07-12T01:04:11.540Z,99.99
2018-07-12T01:05:10.899Z,99.99
2018-07-12T01:06:10.889Z,99.99
2018-07-12T01:07:10.865Z,99.99
2018-07-12T01:08:10.800Z,99.99
2018-07-12T01:09:10.763Z,99.99
2018-07-12T01:10:10.734Z,99.99
2018-07-12T01:11:10.840Z,99.99
2018-07-12T01:12:10.682Z,99.99
2018-07-12T01:13:10.633Z,99.99
2018-07-12T01:14:10.610Z,99.99
2018-07-12T01:15:10.568Z,99.99
2018-07-12T01:16:10.546Z,99.99
2018-07-12T01:17:10.506Z,99.99
2018-07-12T01:18:10.506Z,99.99
2018-07-12T01:19:10.450Z,99.99
2018-07-12T01:20:10.423Z,99.99
2018-07-12T01:21:10.405Z,99.99
2018-07-12T01:22:10.356Z,99.99
2018-07-12T01:23:10.322Z,99.99
2018-07-12T01:24:10.281Z,99.99
2018-07-12T01:25:10.252Z,99.99
2018-07-12T01:26:10.268Z,99.99
2018-07-12T01:27:10.183Z,99.99
2018-07-12T01:28:10.165Z,99.99
2018-07-12T01:29:10.140Z,99.99
2018-07-12T01:30:10.092Z,99.99
2018-07-12T01:31:10.053Z,99.99
2018-07-12T01:32:10.023Z,99.99
2018-07-12T01:33:09.990Z,99.99
2018-07-12T01:34:09.954Z,99.99
2018-07-12T01:35:09.923Z,99.99
2018-07-12T01:36:09.953Z,99.99
2018-07-12T01:37:09.873Z,99.99
2018-07-12T01:38:09.827Z,99.99
2018-07-12T01:39:09.795Z,99.99
2018-07-12T01:40:09.765Z,99.99
2018-07-12T01:41:09.770Z,99.99
2018-07-12T01:42:09.704Z,99.99
2018-07-12T01:43:09.674Z,99.99
2018-07-12T01:44:09.632Z,99.99
2018-07-12T01:45:09.613Z,99.99
2018-07-12T01:46:09.575Z,99.99
2018-07-12T01:47:09.546Z,99.99
2018-07-12T01:48:09.530Z,99.99
2018-07-12T01:49:09.475Z,99.99
2018-07-12T01:50:09.439Z,99.99
2018-07-12T01:51:09.431Z,99.99
2018-07-12T01:52:09.378Z,99.99
2018-07-12T01:53:09.349Z,99.99
2018-07-12T01:54:09.333Z,99.99
2018-07-12T01:55:09.281Z,99.99
2018-07-12T01:56:09.245Z,99.99
2018-07-12T01:57:09.216Z,99.99
2018-07-12T01:58:09.186Z,99.99
2018-07-12T01:59:09.150Z,99.99
2018-07-12T02:00:09.121Z,99.99
2018-07-12T02:01:09.083Z,99.99
2018-07-12T02:02:09.085Z,99.99
2018-07-12T02:03:09.029Z,99.99
2018-07-12T02:04:09.005Z,99.99
2018-07-12T02:05:08.970Z,99.99
2018-07-12T02:06:08.925Z,99.99
2018-07-12T02:07:08.892Z,99.99
2018-07-12T02:08:08.864Z,99.99
2018-07-12T02:09:08.826Z,99.99
2018-07-12T02:10:08.811Z,99.99
2018-07-12T02:11:08.766Z,99.99
2018-07-12T02:12:08.736Z,99.99
2018-07-12T02:13:08.705Z,99.99
2018-07-12T02:14:08.681Z,99.99
2018-07-12T02:15:08.635Z,99.99
2018-07-12T02:16:08.602Z,99.99
2018-07-12T02:17:08.586Z,99.99
2018-07-12T02:18:08.543Z,99.99
2018-07-12T02:19:08.516Z,99.99
2018-07-12T02:20:08.477Z,99.99
2018-07-12T02:21:08.445Z,99.99
2018-07-12T02:22:08.408Z,99.99
2018-07-12T02:23:08.381Z,99.99
2018-07-12T02:24:08.358Z,99.99
2018-07-12T02:25:08.329Z,99.99
2018-07-12T02:26:08.278Z,99.99
2018-07-12T02:27:08.249Z,99.99
2018-07-12T02:28:08.240Z,99.99
2018-07-12T02:29:08.184Z,99.99
2018-07-12T02:30:08.148Z,99.99
2018-07-12T02:31:08.118Z,99.99
2018-07-12T02:32:08.090Z,99.99
2018-07-12T02:33:08.055Z,99.99
2018-07-12T02:34:08.021Z,99.99
2018-07-12T02:35:08.010Z,99.99
2018-07-12T02:36:08.017Z,99.99
2018-07-12T02:37:07.933Z,99.99
2018-07-12T02:38:07.951Z,99.99
2018-07-12T02:39:07.859Z,99.99
2018-07-12T02:40:07.852Z,99.99
2018-07-12T02:41:07.796Z,99.99
2018-07-12T02:42:07.780Z,99.99
2018-07-12T02:43:07.766Z,99.99
2018-07-12T02:44:07.701Z,99.99
2018-07-12T02:45:07.666Z,99.99
2018-07-12T02:46:07.632Z,99.99
2018-07-12T02:47:07.609Z,99.99
2018-07-12T02:48:07.578Z,99.99
2018-07-12T02:49:07.539Z,99.99
2018-07-12T02:50:07.502Z,99.99
2018-07-12T02:51:07.484Z,99.99
2018-07-12T02:52:07.440Z,99.99
2018-07-12T02:53:07.442Z,99.99
2018-07-12T02:54:07.376Z,99.99
2018-07-12T02:55:07.340Z,99.99
2018-07-12T02:56:07.316Z,99.99
2018-07-12T02:57:07.279Z,99.99
2018-07-12T02:58:07.274Z,99.99
2018-07-12T02:59:07.498Z,99.99
2018-07-12T03:00:07.194Z,99.99
2018-07-12T03:01:07.147Z,99.99
2018-07-12T03:02:07.131Z,99.99
2018-07-12T03:03:07.088Z,99.99
2018-07-12T03:04:07.053Z,99.99
2018-07-12T03:05:07.044Z,99.99
2018-07-12T03:06:07.019Z,99.99
2018-07-12T03:07:06.954Z,99.99
2018-07-12T03:08:06.921Z,99.99
2018-07-12T03:09:08.811Z,99.99
2018-07-12T03:10:06.868Z,99.99
2018-07-12T03:11:06.826Z,99.99
2018-07-12T03:12:06.793Z,99.99
2018-07-12T03:13:06.758Z,99.99
2018-07-12T03:14:06.730Z,99.99
2018-07-12T03:15:06.697Z,99.99
2018-07-12T03:16:06.663Z,99.99
2018-07-12T03:17:06.633Z,99.99
2018-07-12T03:18:06.595Z,99.99
2018-07-12T03:19:06.586Z,99.99
2018-07-12T03:20:06.565Z,99.99
2018-07-12T03:21:06.499Z,99.99
2018-07-12T03:22:06.467Z,99.99
2018-07-12T03:23:06.438Z,99.99
2018-07-12T03:24:06.410Z,99.99
2018-07-12T03:25:06.369Z,99.99
2018-07-12T03:26:06.334Z,99.99
2018-07-12T03:27:06.305Z,99.99
2018-07-12T03:28:06.275Z,99.99
2018-07-12T03:29:06.241Z,99.99
2018-07-12T03:30:06.216Z,99.99
2018-07-12T03:31:06.183Z,99.99
2018-07-12T03:32:06.496Z,99.99
2018-07-12T03:33:06.153Z,99.99
2018-07-12T03:34:06.107Z,99.99
2018-07-12T03:35:06.048Z,99.99
2018-07-12T03:36:06.015Z,99.99
2018-07-12T03:37:05.980Z,99.99
2018-07-12T03:38:05.964Z,99.99
2018-07-12T03:39:05.978Z,99.99
2018-07-12T03:40:05.883Z,99.99
2018-07-12T03:41:05.850Z,99.99
2018-07-12T03:42:05.844Z,99.99
2018-07-12T03:43:05.786Z,99.99
2018-07-12T03:44:05.746Z,99.99
2018-07-12T03:45:05.716Z,99.99
2018-07-12T03:46:05.827Z,99.99
2018-07-12T03:47:05.688Z,99.99
2018-07-12T03:48:05.683Z,99.99
2018-07-12T03:49:05.590Z,99.99
2018-07-12T03:50:05.551Z,99.99
2018-07-12T03:51:05.520Z,99.99
2018-07-12T03:52:05.485Z,99.99
2018-07-12T03:53:05.480Z,99.99
2018-07-12T03:54:05.455Z,99.99
2018-07-12T03:55:05.389Z,99.99
2018-07-12T03:56:05.358Z,99.99
2018-07-12T03:57:05.327Z,99.99
2018-07-12T03:58:05.384Z,99.99
2018-07-12T03:59:05.259Z,99.99
2018-07-12T04:00:05.492Z,99.99
2018-07-12T04:01:05.193Z,99.99
2018-07-12T04:02:05.744Z,99.99
2018-07-12T04:03:05.746Z,99.99
2018-07-12T04:04:05.494Z,99.99
2018-07-12T04:05:05.066Z,99.99
2018-07-12T04:06:05.053Z,99.99
2018-07-12T04:07:05.229Z,99.99
2018-07-12T04:08:04.972Z,99.99
2018-07-12T04:09:04.946Z,99.99
2018-07-12T04:10:04.917Z,99.99
2018-07-12T04:11:04.870Z,99.99
2018-07-12T04:12:04.864Z,99.99
2018-07-12T04:13:04.833Z,99.99
2018-07-12T04:14:04.767Z,99.99
2018-07-12T04:15:04.745Z,99.99
2018-07-12T04:16:04.730Z,99.99
2018-07-12T04:17:04.671Z,99.99
2018-07-12T04:18:04.640Z,99.99
2018-07-12T04:19:04.609Z,99.99
2018-07-12T04:20:04.575Z,99.99
2018-07-12T04:21:05.163Z,99.99
2018-07-12T04:22:04.510Z,99.99
2018-07-12T04:23:04.494Z,99.99
2018-07-12T04:24:04.444Z,99.99
2018-07-12T04:25:04.414Z,99.99
2018-07-12T04:26:04.382Z,99.99
2018-07-12T04:27:04.348Z,99.99
2018-07-12T04:28:04.310Z,99.99
2018-07-12T04:29:04.276Z,99.99
2018-07-12T04:30:04.247Z,99.99
2018-07-12T04:31:04.215Z,99.99
2018-07-12T04:32:04.191Z,99.99
2018-07-12T04:33:04.149Z,99.99
2018-07-12T04:34:04.116Z,99.99
2018-07-12T04:35:04.085Z,99.99
2018-07-12T04:36:04.053Z,99.99
2018-07-12T04:37:04.022Z,99.99
2018-07-12T04:38:03.983Z,99.99
2018-07-12T04:39:03.955Z,99.99
2018-07-12T04:40:03.934Z,99.99
2018-07-12T04:41:03.888Z,99.99
2018-07-12T04:42:03.860Z,99.99
2018-07-12T04:43:03.827Z,99.99
2018-07-12T04:44:03.792Z,99.99
2018-07-12T04:45:03.767Z,99.99
2018-07-12T04:46:03.732Z,99.99
2018-07-12T04:47:03.692Z,99.99
2018-07-12T04:48:03.661Z,99.99
2018-07-12T04:49:03.635Z,99.99
2018-07-12T04:50:03.602Z,99.99
2018-07-12T04:51:03.580Z,99.99
2018-07-12T04:52:03.537Z,99.99
2018-07-12T04:53:03.502Z,99.99
2018-07-12T04:54:03.468Z,99.99
2018-07-12T04:55:03.467Z,99.99
2018-07-12T04:56:03.400Z,99.99
2018-07-12T04:57:03.369Z,99.99
2018-07-12T04:58:03.401Z,99.99
2018-07-12T04:59:03.312Z,99.99
2018-07-12T05:00:03.278Z,99.99
2018-07-12T05:01:03.251Z,99.99
2018-07-12T05:02:03.307Z,99.99
2018-07-12T05:03:03.178Z,99.99
2018-07-12T05:04:03.307Z,99.99
2018-07-12T05:05:03.262Z,99.99
2018-07-12T05:06:03.308Z,99.99
2018-07-12T05:07:03.058Z,99.99
2018-07-12T05:08:03.020Z,99.99
2018-07-12T05:09:02.985Z,99.99
2018-07-12T05:10:02.955Z,99.99
2018-07-12T05:11:02.920Z,99.99
2018-07-12T05:12:02.888Z,99.99
2018-07-12T05:13:03.457Z,99.99
2018-07-12T05:14:02.827Z,99.99
2018-07-12T05:15:02.795Z,99.99
2018-07-12T05:16:02.790Z,99.99
2018-07-12T05:17:02.732Z,99.99
2018-07-12T05:18:02.696Z,99.99
2018-07-12T05:19:02.670Z,99.99
2018-07-12T05:20:02.637Z,99.99
2018-07-12T05:21:02.602Z,99.99
2018-07-12T05:22:02.725Z,99.99
2018-07-12T05:23:02.538Z,99.99
2018-07-12T05:24:02.520Z,99.99
2018-07-12T05:25:02.484Z,99.99
2018-07-12T05:26:02.446Z,99.99
2018-07-12T05:27:02.413Z,99.99
2018-07-12T05:28:02.384Z,99.99
2018-07-12T05:29:02.351Z,99.99
2018-07-12T05:30:02.316Z,99.99
2018-07-12T05:31:02.288Z,99.99
2018-07-12T05:32:02.252Z,99.99
2018-07-12T05:33:02.227Z,99.99
2018-07-12T05:34:02.193Z,99.99
2018-07-12T05:35:02.157Z,99.73
2018-07-12T05:36:02.131Z,99.35
2018-07-12T05:37:02.104Z,98.77
2018-07-12T05:38:02.071Z,98.68
2018-07-12T05:39:02.078Z,98.77
2018-07-12T05:40:02.007Z,99.44
2018-07-12T05:41:01.974Z,99.99
2018-07-12T05:42:01.948Z,99.35
2018-07-12T05:43:01.917Z,99.99
2018-07-12T05:44:02.207Z,99.99
2018-07-12T05:45:01.852Z,99.99
2018-07-12T05:46:01.818Z,99.99
2018-07-12T05:47:01.793Z,99.99
2018-07-12T05:48:01.754Z,99.99
2018-07-12T05:49:01.727Z,99.99
2018-07-12T05:50:01.696Z,99.99
2018-07-12T05:51:01.668Z,99.99
2018-07-12T05:52:01.631Z,99.99
2018-07-12T05:53:01.605Z,99.99
2018-07-12T05:54:01.565Z,99.99
2018-07-12T05:55:01.541Z,99.99
2018-07-12T05:56:01.509Z,99.99
2018-07-12T05:57:01.487Z,99.99
2018-07-12T05:58:01.448Z,99.99
2018-07-12T05:59:01.410Z,99.99
2018-07-12T06:00:01.382Z,99.99
2018-07-12T06:01:01.351Z,99.35
2018-07-12T06:02:01.317Z,98.77
2018-07-12T06:03:01.362Z,98.87
2018-07-12T06:04:01.263Z,98.96
2018-07-12T06:05:01.226Z,98.49
2018-07-12T06:06:01.227Z,99.73
2018-07-12T06:07:01.168Z,98.68
2018-07-12T06:08:01.134Z,98.87
2018-07-12T06:09:01.104Z,99.64
2018-07-12T06:10:01.074Z,98.91
2018-07-12T06:11:01.036Z,99.26
2018-07-12T06:12:01.009Z,99.06
2018-07-12T06:13:00.979Z,98.77
2018-07-12T06:14:00.950Z,98.68
2018-07-12T06:15:00.915Z,98.00
2018-07-12T06:16:00.904Z,96.51
2018-07-12T06:17:00.907Z,97.28
2018-07-12T06:18:00.824Z,96.51
2018-07-12T06:19:00.847Z,94.30
2018-07-12T06:20:00.763Z,94.15
2018-07-12T06:21:00.726Z,94.15
2018-07-12T06:22:00.699Z,92.85
2018-07-12T06:23:00.680Z,92.37
2018-07-12T06:24:00.635Z,92.18
2018-07-12T06:25:01.029Z,91.12
2018-07-12T06:26:00.572Z,90.20
2018-07-12T06:27:00.543Z,90.68
2018-07-12T06:28:00.515Z,89.14
2018-07-12T06:29:00.486Z,87.79
2018-07-12T06:30:00.481Z,87.60
2018-07-12T06:31:00.431Z,87.70
2018-07-12T06:32:00.436Z,88.08
2018-07-12T06:33:00.363Z,87.26
2018-07-12T06:34:00.333Z,86.77
2018-07-12T06:35:00.304Z,86.58
2018-07-12T06:36:00.275Z,85.77
2018-07-12T06:37:00.246Z,86.58
2018-07-12T06:38:00.211Z,86.39
2018-07-12T06:39:00.200Z,85.13
2018-07-12T06:40:00.152Z,85.19
2018-07-12T06:41:00.122Z,85.28
2018-07-12T06:42:00.094Z,85.57
2018-07-12T06:43:00.060Z,85.57
2018-07-12T06:44:00.041Z,85.77
2018-07-12T06:45:00.024Z,85.96
2018-07-12T06:46:00.009Z,85.91
2018-07-12T06:47:00.054Z,85.77
2018-07-12T06:47:59.915Z,86.25
2018-07-12T06:48:59.884Z,86.73
2018-07-12T06:49:59.849Z,87.07
2018-07-12T06:50:59.819Z,87.26
2018-07-12T06:51:59.793Z,87.46
2018-07-12T06:52:59.766Z,88.71
2018-07-12T06:53:59.738Z,88.04
2018-07-12T06:54:59.702Z,88.23
2018-07-12T06:55:59.670Z,87.17
2018-07-12T06:56:59.641Z,87.17
2018-07-12T06:57:59.609Z,87.26
2018-07-12T06:58:59.589Z,86.88
2018-07-12T06:59:59.550Z,86.88
2018-07-12T07:01:00.085Z,87.55
2018-07-12T07:01:59.490Z,88.47
2018-07-12T07:02:59.457Z,88.95
2018-07-12T07:03:59.436Z,88.85
2018-07-12T07:04:59.398Z,88.04
2018-07-12T07:05:59.453Z,87.26
2018-07-12T07:06:59.418Z,85.67
2018-07-12T07:07:59.311Z,86.44
2018-07-12T07:08:59.282Z,84.90
2018-07-12T07:09:59.251Z,84.75
2018-07-12T07:10:59.215Z,85.03
2018-07-12T07:11:59.190Z,84.46
2018-07-12T07:12:59.165Z,83.88
2018-07-12T07:13:59.127Z,83.34
2018-07-12T07:14:59.099Z,82.09
2018-07-12T07:15:59.071Z,80.83
2018-07-12T07:16:59.037Z,81.22
2018-07-12T07:17:59.005Z,81.41
2018-07-12T07:18:58.977Z,80.45
2018-07-12T07:19:58.981Z,80.74
2018-07-12T07:20:58.916Z,80.83
2018-07-12T07:21:58.892Z,81.12
2018-07-12T07:22:58.859Z,80.83
2018-07-12T07:23:58.826Z,80.60
2018-07-12T07:24:58.797Z,81.22
2018-07-12T07:25:58.781Z,81.12
2018-07-12T07:26:58.741Z,81.18
2018-07-12T07:27:58.715Z,81.95
2018-07-12T07:28:58.681Z,82.43
2018-07-12T07:29:58.652Z,82.34
2018-07-12T07:30:58.619Z,83.01
2018-07-12T07:31:58.593Z,83.50
2018-07-12T07:32:58.587Z,82.97
2018-07-12T07:33:58.531Z,83.01
2018-07-12T07:34:58.503Z,84.12
2018-07-12T07:35:58.473Z,83.26
2018-07-12T07:36:58.441Z,84.03
2018-07-12T07:37:58.413Z,84.32
2018-07-12T07:38:58.384Z,84.03
2018-07-12T07:39:58.376Z,84.61
2018-07-12T07:40:58.327Z,84.07
2018-07-12T07:41:58.291Z,83.20
2018-07-12T07:42:58.312Z,82.34
2018-07-12T07:43:58.239Z,82.14
2018-07-12T07:44:58.203Z,82.18
2018-07-12T07:45:58.172Z,81.26
2018-07-12T07:46:58.145Z,79.81
2018-07-12T07:47:58.117Z,79.52
2018-07-12T07:48:58.095Z,78.66
2018-07-12T07:49:58.061Z,78.27
2018-07-12T07:50:58.027Z,78.75
2018-07-12T07:51:57.997Z,79.24
2018-07-12T07:52:57.964Z,78.17
2018-07-12T07:53:57.936Z,78.17
2018-07-12T07:54:57.909Z,76.67
2018-07-12T07:55:57.881Z,76.67
2018-07-12T07:56:57.851Z,75.89
2018-07-12T07:57:57.824Z,75.26
2018-07-12T07:58:57.792Z,74.96
2018-07-12T07:59:57.764Z,75.26
2018-07-12T08:00:57.737Z,75.20
2018-07-12T08:01:57.706Z,74.13
2018-07-12T08:02:57.680Z,73.46
2018-07-12T08:03:57.655Z,72.97
2018-07-12T08:04:57.617Z,71.81
2018-07-12T08:05:57.592Z,72.78
2018-07-12T08:06:57.561Z,72.33
2018-07-12T08:07:57.533Z,71.84
2018-07-12T08:08:57.506Z,71.26
2018-07-12T08:09:57.485Z,72.14
2018-07-12T08:10:57.448Z,72.04
2018-07-12T08:11:57.419Z,72.20
2018-07-12T08:12:57.391Z,72.78
2018-07-12T08:13:57.366Z,72.10
2018-07-12T08:14:57.336Z,72.64
2018-07-12T08:15:57.309Z,73.03
2018-07-12T08:16:57.277Z,72.68
2018-07-12T08:17:57.256Z,71.91
2018-07-12T08:18:57.223Z,71.91
2018-07-12T08:19:57.190Z,71.14
2018-07-12T08:20:57.165Z,71.17
2018-07-12T08:21:57.143Z,71.14
2018-07-12T08:22:57.106Z,71.17
2018-07-12T08:23:57.082Z,70.78
2018-07-12T08:24:57.047Z,70.34
2018-07-12T08:25:57.023Z,69.66
2018-07-12T08:26:56.994Z,68.53
2018-07-12T08:27:56.964Z,68.40
2018-07-12T08:28:56.938Z,68.21
2018-07-12T08:29:56.914Z,69.08
2018-07-12T08:30:56.881Z,68.30
2018-07-12T08:31:56.853Z,68.11
2018-07-12T08:32:56.827Z,69.17
2018-07-12T08:33:56.797Z,68.59
2018-07-12T08:34:56.775Z,67.63
2018-07-12T08:35:56.745Z,67.53
2018-07-12T08:36:56.717Z,67.63
2018-07-12T08:37:56.685Z,68.59
2018-07-12T08:38:56.657Z,68.01
2018-07-12T08:39:56.633Z,68.59
2018-07-12T08:40:56.600Z,67.76
2018-07-12T08:41:56.571Z,66.05
2018-07-12T08:42:56.545Z,65.59
2018-07-12T08:43:56.523Z,63.88
2018-07-12T08:44:56.494Z,62.95
2018-07-12T08:45:56.463Z,61.13
2018-07-12T08:46:56.440Z,60.45
2018-07-12T08:47:56.409Z,59.41
2018-07-12T08:48:56.382Z,58.76
2018-07-12T08:49:56.355Z,58.37
2018-07-12T08:50:56.328Z,59.64
2018-07-12T08:51:56.296Z,58.93
2018-07-12T08:52:56.275Z,59.16
2018-07-12T08:53:56.256Z,59.74
2018-07-12T08:54:56.223Z,60.91
2018-07-12T08:55:56.196Z,61.49
2018-07-12T08:56:56.170Z,62.04
2018-07-12T08:57:56.138Z,62.40
2018-07-12T08:58:56.116Z,62.20
2018-07-12T08:59:56.091Z,62.30
2018-07-12T09:00:56.064Z,62.52
2018-07-12T09:01:56.037Z,62.59
2018-07-12T09:02:56.044Z,62.49
2018-07-12T09:03:55.983Z,62.91
2018-07-12T09:04:55.955Z,62.13
2018-07-12T09:05:55.930Z,62.69
2018-07-12T09:06:55.902Z,62.69
2018-07-12T09:07:55.873Z,62.79
2018-07-12T09:08:55.846Z,62.30
2018-07-12T09:09:55.820Z,62.79
2018-07-12T09:10:55.786Z,63.27
2018-07-12T09:11:55.763Z,63.01
2018-07-12T09:12:55.776Z,62.82
2018-07-12T09:13:55.709Z,61.98
2018-07-12T09:14:55.685Z,60.74
2018-07-12T09:15:55.658Z,59.67
2018-07-12T09:16:55.634Z,59.70
2018-07-12T09:17:55.602Z,58.64
2018-07-12T09:18:55.577Z,58.93
2018-07-12T09:19:55.551Z,59.03
2018-07-12T09:20:55.528Z,58.80
2018-07-12T09:21:55.496Z,58.90
2018-07-12T09:22:55.469Z,59.28
2018-07-12T09:23:55.442Z,59.58
2018-07-12T09:24:55.418Z,59.77
2018-07-12T09:25:55.397Z,59.94
2018-07-12T09:26:55.364Z,60.52
2018-07-12T09:27:55.338Z,61.98
2018-07-12T09:28:55.350Z,61.29
2018-07-12T09:29:55.283Z,61.36
2018-07-12T09:30:55.331Z,61.88
2018-07-12T09:31:55.231Z,62.43
2018-07-12T09:32:55.210Z,62.26
2018-07-12T09:33:55.176Z,62.23
2018-07-12T09:34:55.195Z,62.23
2018-07-12T09:35:55.121Z,62.04
2018-07-12T09:36:55.133Z,62.82
2018-07-12T09:37:55.068Z,64.24
2018-07-12T09:38:55.049Z,62.88
2018-07-12T09:39:55.013Z,64.04
2018-07-12T09:40:54.988Z,64.40
2018-07-12T09:41:54.957Z,64.89
2018-07-12T09:42:54.949Z,64.40
2018-07-12T09:43:54.907Z,64.30
2018-07-12T09:44:54.897Z,64.20
2018-07-12T09:45:54.905Z,64.04
2018-07-12T09:46:54.819Z,62.23
2018-07-12T09:47:54.787Z,61.55
2018-07-12T09:48:54.798Z,62.13
2018-07-12T09:49:54.738Z,61.36
2018-07-12T09:50:54.705Z,61.17
2018-07-12T09:51:54.688Z,61.10
2018-07-12T09:52:54.657Z,60.81
2018-07-12T09:53:54.623Z,60.49
2018-07-12T09:54:54.599Z,60.88
2018-07-12T09:55:54.635Z,61.07
2018-07-12T09:56:54.546Z,62.04
2018-07-12T09:57:54.527Z,62.04
2018-07-12T09:58:54.489Z,62.33
2018-07-12T09:59:54.464Z,60.88
2018-07-12T10:00:54.435Z,61.29
2018-07-12T10:01:54.407Z,60.52
2018-07-12T10:02:54.377Z,59.58
2018-07-12T10:03:54.361Z,59.70
2018-07-12T10:04:54.324Z,58.95
2018-07-12T10:05:54.295Z,58.25
2018-07-12T10:06:54.273Z,58.57
2018-07-12T10:07:54.245Z,58.34
2018-07-12T10:08:54.218Z,57.86
2018-07-12T10:09:54.213Z,58.18
2018-07-12T10:10:54.160Z,58.37
2018-07-12T10:11:54.136Z,57.69
2018-07-12T10:12:54.110Z,58.08
2018-07-12T10:13:54.079Z,57.62
2018-07-12T10:14:54.053Z,57.23
2018-07-12T10:15:54.238Z,56.29
2018-07-12T10:16:54.004Z,56.00
2018-07-12T10:17:53.973Z,55.51
2018-07-12T10:18:53.951Z,56.36
2018-07-12T10:19:53.944Z,56.39
2018-07-12T10:20:53.902Z,55.15
2018-07-12T10:21:53.876Z,53.72
2018-07-12T10:22:53.844Z,53.99
2018-07-12T10:23:53.816Z,53.79
2018-07-12T10:24:53.793Z,53.96
2018-07-12T10:25:53.768Z,55.51
2018-07-12T10:26:53.734Z,55.58
2018-07-12T10:27:53.724Z,56.46
2018-07-12T10:28:53.690Z,55.58
2018-07-12T10:29:53.709Z,53.99
2018-07-12T10:30:53.634Z,52.67
2018-07-12T10:31:53.613Z,51.43
2018-07-12T10:32:53.583Z,50.56
2018-07-12T10:33:53.555Z,50.82
2018-07-12T10:34:53.530Z,51.87
2018-07-12T10:35:53.521Z,52.97
2018-07-12T10:36:53.480Z,52.45
2018-07-12T10:37:53.453Z,54.28
2018-07-12T10:38:53.427Z,54.28
2018-07-12T10:39:53.412Z,54.18
2018-07-12T10:40:53.373Z,54.64
2018-07-12T10:41:53.348Z,54.90
2018-07-12T10:42:53.323Z,54.61
2018-07-12T10:43:53.301Z,54.80
2018-07-12T10:44:53.269Z,55.49
2018-07-12T10:45:53.244Z,55.39
2018-07-12T10:46:53.218Z,54.64
2018-07-12T10:47:53.192Z,54.35
2018-07-12T10:48:53.166Z,54.15
2018-07-12T10:49:53.138Z,55.29
2018-07-12T10:50:53.111Z,55.39
2018-07-12T10:51:53.096Z,55.49
2018-07-12T10:52:53.124Z,55.85
2018-07-12T10:53:53.030Z,56.30
2018-07-12T10:54:53.009Z,56.40
2018-07-12T10:55:52.980Z,57.57
2018-07-12T10:56:52.953Z,58.12
2018-07-12T10:57:52.933Z,58.12
2018-07-12T10:58:52.902Z,58.22
2018-07-12T10:59:52.873Z,58.18
2018-07-12T11:00:52.852Z,56.20
2018-07-12T11:01:52.818Z,52.84
2018-07-12T11:02:52.792Z,52.09
2018-07-12T11:03:52.764Z,52.48
2018-07-12T11:04:52.742Z,51.04
2018-07-12T11:05:52.710Z,51.14
2018-07-12T11:06:52.694Z,50.82
2018-07-12T11:07:52.659Z,51.70
2018-07-12T11:08:52.634Z,51.90
2018-07-12T11:09:52.662Z,51.77
2018-07-12T11:10:52.580Z,52.06
2018-07-12T11:11:52.557Z,52.23
2018-07-12T11:12:52.531Z,52.36
2018-07-12T11:13:52.500Z,51.39
2018-07-12T11:14:52.479Z,50.92
2018-07-12T11:15:52.494Z,49.22
2018-07-12T11:16:52.423Z,48.00
2018-07-12T11:17:52.398Z,47.63
2018-07-12T11:18:52.902Z,46.04
2018-07-12T11:19:52.348Z,45.55
2018-07-12T11:20:52.322Z,45.41
2018-07-12T11:21:52.801Z,45.87
2018-07-12T11:22:52.270Z,45.78
2018-07-12T11:23:52.250Z,46.56
2018-07-12T11:24:52.219Z,46.68
2018-07-12T11:25:52.195Z,45.70
2018-07-12T11:26:52.170Z,45.68
2018-07-12T11:27:52.155Z,46.63
2018-07-12T11:28:52.123Z,48.34
2018-07-12T11:29:52.095Z,49.29
2018-07-12T11:30:52.068Z,50.63
2018-07-12T11:31:52.045Z,51.77
2018-07-12T11:32:52.019Z,51.75
2018-07-12T11:33:51.991Z,51.61
2018-07-12T11:34:51.966Z,50.46
2018-07-12T11:35:51.996Z,49.02
2018-07-12T11:36:51.919Z,47.78
2018-07-12T11:37:51.889Z,47.90
2018-07-12T11:38:51.867Z,47.24
2018-07-12T11:39:51.838Z,45.70
2018-07-12T11:40:51.814Z,44.96
2018-07-12T11:41:52.220Z,44.18
2018-07-12T11:42:51.764Z,43.89
2018-07-12T11:43:51.738Z,43.62
2018-07-12T11:44:51.714Z,42.66
2018-07-12T11:45:51.688Z,41.89
2018-07-12T11:46:51.661Z,42.85
2018-07-12T11:47:51.638Z,42.38
2018-07-12T11:48:51.612Z,41.97
2018-07-12T11:49:51.588Z,43.13
2018-07-12T11:50:51.585Z,43.40
2018-07-12T11:51:51.536Z,43.49
2018-07-12T11:52:51.572Z,43.71
2018-07-12T11:53:51.487Z,42.09
2018-07-12T11:54:51.463Z,41.60
2018-07-12T11:55:51.438Z,42.11
2018-07-12T11:56:51.422Z,40.29
2018-07-12T11:57:51.387Z,39.06
2018-07-12T11:58:51.364Z,38.37
2018-07-12T11:59:51.338Z,38.33
2018-07-12T12:00:51.316Z,40.16
2018-07-12T12:01:51.356Z,40.53
2018-07-12T12:02:51.265Z,40.72
2018-07-12T12:03:51.244Z,42.76
2018-07-12T12:04:51.217Z,43.71
2018-07-12T12:05:51.190Z,43.69
2018-07-12T12:06:51.181Z,44.92
2018-07-12T12:07:51.144Z,46.17
2018-07-12T12:08:51.117Z,46.95
2018-07-12T12:09:51.092Z,46.75
2018-07-12T12:10:51.073Z,47.66
2018-07-12T12:11:51.041Z,45.53
2018-07-12T12:12:51.021Z,44.06
2018-07-12T12:13:50.991Z,44.45
2018-07-12T12:14:50.964Z,44.38
2018-07-12T12:15:50.942Z,43.77
2018-07-12T12:16:50.922Z,44.92
2018-07-12T12:17:50.888Z,45.65
2018-07-12T12:18:50.863Z,45.39
2018-07-12T12:19:50.844Z,45.75
2018-07-12T12:20:50.816Z,46.95
2018-07-12T12:21:51.262Z,46.04
2018-07-12T12:22:50.765Z,46.92
2018-07-12T12:23:50.746Z,46.14
2018-07-12T12:24:50.710Z,47.00
2018-07-12T12:25:50.691Z,47.83
2018-07-12T12:26:50.666Z,48.32
2018-07-12T12:27:50.641Z,49.07
2018-07-12T12:28:50.616Z,50.31
2018-07-12T12:29:50.587Z,50.31
2018-07-12T12:30:50.577Z,50.31
2018-07-12T12:31:50.536Z,50.90
2018-07-12T12:32:50.509Z,51.53
2018-07-12T12:33:50.482Z,51.82
2018-07-12T12:34:50.458Z,51.72
2018-07-12T12:35:50.431Z,51.89
2018-07-12T12:36:50.411Z,52.89
2018-07-12T12:37:50.378Z,52.98
2018-07-12T12:38:50.351Z,52.31
2018-07-12T12:39:50.326Z,52.40
2018-07-12T12:40:50.296Z,52.01
2018-07-12T12:41:50.316Z,51.94
2018-07-12T12:42:50.246Z,49.61
2018-07-12T12:43:50.217Z,46.92
2018-07-12T12:44:50.194Z,45.87
2018-07-12T12:45:50.163Z,45.56
2018-07-12T12:46:50.144Z,44.53
2018-07-12T12:47:50.111Z,44.53
2018-07-12T12:48:50.089Z,45.17
2018-07-12T12:49:50.058Z,44.87
2018-07-12T12:50:50.056Z,46.61
2018-07-12T12:51:50.010Z,47.56